Flight Track Log - Related Links

Times and Time Zones

All times are in EDT time to prevent confusion due to time zone crossing. See the UPS1122 flight status page for this flight to view local times or setup timezone preferences in your user account.

Time Position Orientation Groundspeed Altitude Reporting Facility
EDT Latitude Longitude Course Direction KTS MPH feet Rate Location/Type
Wed 03:51:36 AM 39.8659 -75.2506 74° East 155 178 400  Level FlightAware ADS-B
Wed 03:51:44 AM 39.8675 -75.2438 73° East 157 181 800 2,800 Climbing FlightAware ADS-B
Wed 03:51:51 AM 39.8691 -75.2373 72° East 157 181 1,100 1,800 Climbing FlightAware ADS-B
Wed 03:52:04 AM 39.8723 -75.2252 71° East 170 196 1,400 828 Climbing FlightAware ADS-B
Wed 03:52:20 AM 39.8766 -75.2088 71° East 190 219 1,500 968 Climbing FlightAware ADS-B
Wed 03:52:35 AM 39.8813 -75.1910 71° East 212 244 1,900 2,000 Climbing FlightAware ADS-B
Wed 03:52:41 AM 39.8829 -75.1845 72° East 217 250 2,200 2,400 Climbing FlightAware ADS-B
Wed 03:52:45 AM 39.8839 -75.1794 76° East 220 253 2,300 2,250 Climbing FlightAware ADS-B
Wed 03:52:49 AM 39.8846 -75.1732 82° East 224 258 2,500 2,250 Climbing FlightAware ADS-B
Wed 03:52:53 AM 39.8847 -75.1683 88° East 229 264 2,600 1,333 Climbing FlightAware ADS-B
Wed 03:52:58 AM 39.8843 -75.1612 94° East 236 272 2,700 1,636 Climbing FlightAware ADS-B
Wed 03:53:04 AM 39.8829 -75.1526 102° East 243 280 2,900 2,455 Climbing FlightAware ADS-B
Wed 03:53:20 AM 39.8780 -75.1289 105° East 261 300 3,600 2,903 Climbing FlightAware ADS-B
Wed 03:53:35 AM 39.8730 -75.1052 105° East 269 310 4,400 3,273 Climbing FlightAware ADS-B
Wed 03:53:42 AM 39.8707 -75.0944 106° East 271 312 4,800 3,652 Climbing FlightAware ADS-B
Wed 03:53:58 AM 39.8654 -75.0683 105° East 272 313 5,800 3,429 Climbing FlightAware ADS-B
Wed 03:54:17 AM 39.8589 -75.0384 106° East 284 327 6,800 3,429 Climbing FlightAware ADS-B
Wed 03:54:26 AM 39.8556 -75.0222 105° East 285 328 7,400 3,360 Climbing FlightAware ADS-B
Wed 03:54:42 AM 39.8514 -74.9969 102° East 289 333 8,200 3,097 Climbing FlightAware ADS-B
Wed 03:54:57 AM 39.8470 -74.9704 102° East 295 339 9,000 3,290 Climbing FlightAware ADS-B
Wed 03:55:13 AM 39.8420 -74.9418 103° East 300 345 9,900 2,426 Climbing FlightAware ADS-B
Wed 03:55:44 AM 39.8308 -74.8865 105° East 330 380 10,900 1,770 Climbing FlightAware ADS-B
Wed 03:56:14 AM 39.8184 -74.8248 105° East 365 420 11,700 1,959 Climbing FlightAware ADS-B
Wed 03:56:33 AM 39.8102 -74.7828 104° East 375 432 12,500 2,483 Climbing FlightAware ADS-B
Wed 03:56:43 AM 39.8082 -74.7598 96° East 379 436 12,900 2,500 Climbing FlightAware ADS-B
Wed 03:56:57 AM 39.8118 -74.7286 81° East 382 440 13,500 2,526 Climbing FlightAware ADS-B
Wed 03:57:02 AM 39.8144 -74.7191 70° East 383 441 13,700 2,500 Climbing FlightAware ADS-B
Wed 03:57:09 AM 39.8201 -74.7047 63° Northeast 383 441 14,000 2,769 Climbing FlightAware ADS-B
Wed 03:57:15 AM 39.8265 -74.6931 54° Northeast 384 442 14,300 3,000 Climbing FlightAware ADS-B
Wed 03:57:21 AM 39.8339 -74.6830 46° Northeast 384 442 14,600 2,833 Climbing FlightAware ADS-B
Wed 03:57:51 AM 39.8779 -74.6403 37° Northeast 392 451 16,000 2,613 Climbing FlightAware ADS-B
Wed 03:58:23 AM 39.9254 -74.5976 35° Northeast 401 461 17,300 2,476 Climbing FlightAware ADS-B
Wed 03:58:54 AM 39.9729 -74.5545 35° Northeast 409 471 18,600 2,459 Climbing FlightAware ADS-B
Wed 03:59:24 AM 40.0204 -74.5108 35° Northeast 416 479 19,800 2,300 Climbing FlightAware ADS-B
Wed 03:59:54 AM 40.0681 -74.4670 35° Northeast 423 487 20,900 2,500 Climbing FlightAware ADS-B
Wed 04:00:24 AM 40.1162 -74.4225 35° Northeast 411 473 22,300 1,938 Climbing FlightAware ADS-B
Wed 04:00:59 AM 40.1703 -74.3725 35° Northeast 396 456 23,000 646 Climbing FlightAware ADS-B
Wed 04:01:29 AM 40.2153 -74.3313 35° Northeast 406 467 23,000  Level FlightAware ADS-B
Wed 04:02:00 AM 40.2618 -74.2884 35° Northeast 408 470 23,000  Level FlightAware ADS-B
Wed 04:02:30 AM 40.3088 -74.2448 35° Northeast 408 470 23,000  Level FlightAware ADS-B
Wed 04:03:00 AM 40.3553 -74.2014 35° Northeast 407 468 23,000  Level FlightAware ADS-B
Wed 04:03:32 AM 40.4038 -74.1560 35° Northeast 407 468 23,000  Level FlightAware ADS-B
Wed 04:04:02 AM 40.4506 -74.1121 36° Northeast 408 470 23,000  Level FlightAware ADS-B
Wed 04:04:33 AM 40.4974 -74.0682 35° Northeast 409 471 23,000  Level FlightAware ADS-B
Wed 04:05:03 AM 40.5444 -74.0243 35° Northeast 409 471 23,000  Level FlightAware ADS-B
Wed 04:05:33 AM 40.5911 -73.9806 35° Northeast 410 472 23,000  Level FlightAware ADS-B
Wed 04:06:03 AM 40.6381 -73.9369 35° Northeast 410 472 23,000  Level FlightAware ADS-B
Wed 04:06:33 AM 40.6847 -73.8933 35° Northeast 412 474 23,000  Level FlightAware ADS-B
Wed 04:07:04 AM 40.7318 -73.8491 35° Northeast 412 474 23,000  Level FlightAware ADS-B
Wed 04:07:34 AM 40.7792 -73.8043 36° Northeast 414 476 23,000  Level FlightAware ADS-B
Wed 04:08:04 AM 40.8263 -73.7596 36° Northeast 415 478 23,000  Level FlightAware ADS-B
Wed 04:08:34 AM 40.8732 -73.7151 36° Northeast 415 478 23,000  Level FlightAware ADS-B
Wed 04:09:04 AM 40.9202 -73.6706 36° Northeast 415 478 23,000  Level FlightAware ADS-B
Wed 04:09:35 AM 40.9681 -73.6252 36° Northeast 415 478 23,000  Level FlightAware ADS-B
Wed 04:10:05 AM 41.0153 -73.5804 36° Northeast 403 464 23,000  Level FlightAware ADS-B
Wed 04:10:35 AM 41.0598 -73.5380 36° Northeast 382 440 23,000 -1,500 Level FlightAware ADS-B
Wed 04:11:05 AM 41.1036 -73.4964 36° Northeast 396 456 21,500 -3,443 Descending FlightAware ADS-B
Wed 04:11:36 AM 41.1501 -73.4522 36° Northeast 415 478 19,500 -3,836 Descending FlightAware ADS-B
Wed 04:12:06 AM 41.1987 -73.4056 36° Northeast 425 489 17,600 -3,231 Descending FlightAware ADS-B
Wed 04:12:41 AM 41.2528 -73.3537 36° Northeast 417 480 16,000 -3,036 Descending FlightAware ADS-B
Wed 04:13:29 AM 41.3250 -73.2840 36° Northeast 418 481 13,400 -2,045 Descending FlightAware ADS-B
Wed 04:14:09 AM 41.3770 -73.2340 36° Northeast 415 478 13,000 -1,974 Descending FlightAware ADS-B
Wed 04:14:45 AM 41.4220 -73.1910 36° Northeast 415 478 10,900 -1,683 Descending FlightAware ADS-B
Wed 04:15:31 AM 41.4740 -73.1440 34° Northeast 350 403 10,700 -146 Descending FlightAware ADS-B
Wed 04:16:07 AM 41.5150 -73.1070 34° Northeast 350 403 10,700  Level FlightAware ADS-B
Wed 04:16:44 AM 41.5570 -73.0690 34° Northeast 350 403 10,700 -2,491 Level FlightAware ADS-B
Wed 04:17:53 AM 41.6425 -73.0067 34° Northeast 248 285 6,300 -2,419 Descending Boston Center
Wed 04:18:53 AM 41.6928 -72.9656 31° Northeast 245 282 5,500 -900 Descending Boston Center
Wed 04:19:53 AM 41.7511 -72.9158 32° Northeast 229 264 4,500 -1,031 Descending Boston Center
Wed 04:19:57 AM 41.7511 -72.9158 32° Northeast 224 258 4,400 -1,048 Descending Boston Center
Wed 04:20:56 AM 41.8014 -72.8717 33° Northeast 205 236 3,400 -776 Descending Boston Center
Wed 04:21:53 AM 41.8328 -72.8303 44° Northeast 196 226 2,900 -712 Descending Boston Center
Wed 04:22:54 AM 41.8642 -72.7886 45° Northeast 178 205 2,000 -800 Descending Boston Center
Wed 04:23:53 AM 41.8956 -72.7497 43° Northeast 158 182 1,300 -700 Descending Boston Center
Wed 04:24:54 AM 41.9208 -72.7164 44° Northeast 141 162 600 -439 Descending Boston Center
Wed 04:25:56 AM 41.9500 -72.6775 45° Northeast 136 157 400 -194 Descending Boston Center
Wed 04:29:00 AM 41.9333 -72.6833 217° Southwest  Level FlightAware Approximate
Wed 04:36:00 AM 41.9392 -72.6834 217° Southwest  Level Estimated
Wed 04:37:00 AM 41.9333 -72.6833 217° Southwest  Level FlightAware Approximate
Wed 04:38:00 AM 41.9392 -72.6834 217° Southwest  Level Estimated
Wed 04:39:00 AM 41.9333 -72.6833 217° Southwest  Level FlightAware Approximate

Login

Don't have an account? Register now (free) for customized features, flight alerts, and more!